createdAt,value
2016-12-07T00:00:26.387Z,0
2016-12-07T00:01:35.905Z,0
2016-12-07T00:02:45.727Z,0
2016-12-07T00:03:55.524Z,0
2016-12-07T00:05:05.306Z,0
2016-12-07T00:06:15.134Z,0
2016-12-07T00:07:24.905Z,0
2016-12-07T00:08:34.444Z,0
2016-12-07T00:09:44.228Z,0
2016-12-07T00:10:54.020Z,0
2016-12-07T00:12:03.808Z,0
2016-12-07T00:13:13.604Z,0
2016-12-07T00:14:23.060Z,0
2016-12-07T00:15:32.520Z,0
2016-12-07T00:16:42.311Z,0
2016-12-07T00:17:52.086Z,0
2016-12-07T00:19:01.849Z,0
2016-12-07T00:20:11.638Z,0
2016-12-07T00:21:20.889Z,0
2016-12-07T00:22:30.426Z,0
2016-12-07T00:23:40.200Z,0
2016-12-07T00:24:49.690Z,0
2016-12-07T00:25:58.948Z,0
2016-12-07T00:27:08.427Z,0
2016-12-07T00:28:18.244Z,0
2016-12-07T00:29:27.713Z,0
2016-12-07T00:30:37.173Z,0
2016-12-07T00:31:46.946Z,0
2016-12-07T00:32:56.731Z,0
2016-12-07T00:34:06.211Z,0
2016-12-07T00:35:16.000Z,0
2016-12-07T00:36:25.877Z,0
2016-12-07T00:37:35.362Z,0
2016-12-07T00:38:44.545Z,0
2016-12-07T00:39:54.003Z,0
2016-12-07T00:41:03.541Z,0
2016-12-07T00:42:13.337Z,0
2016-12-07T00:43:22.853Z,0
2016-12-07T00:44:32.703Z,0
2016-12-07T00:45:42.533Z,0
2016-12-07T00:46:52.377Z,0
2016-12-07T00:48:01.865Z,0
2016-12-07T00:49:11.368Z,0
2016-12-07T00:50:21.341Z,0
2016-12-07T00:51:30.820Z,0
2016-12-07T00:52:40.603Z,0
2016-12-07T00:53:50.421Z,0
2016-12-07T00:54:59.960Z,0
2016-12-07T00:56:09.427Z,0
2016-12-07T00:57:18.883Z,0
2016-12-07T00:58:28.023Z,0
2016-12-07T00:59:37.792Z,0
2016-12-07T01:00:47.603Z,0
2016-12-07T01:01:57.373Z,0
2016-12-07T01:03:07.179Z,0
2016-12-07T01:04:16.662Z,0
2016-12-07T01:05:26.477Z,0
2016-12-07T01:06:36.007Z,0
2016-12-07T01:07:45.567Z,0
2016-12-07T01:08:55.340Z,0
2016-12-07T01:10:04.801Z,0
2016-12-07T01:11:13.970Z,0
2016-12-07T01:12:23.428Z,0
2016-12-07T01:13:32.302Z,0
2016-12-07T01:14:41.835Z,0
2016-12-07T01:15:51.667Z,0
2016-12-07T01:17:01.446Z,0
2016-12-07T01:18:10.946Z,0
2016-12-07T01:19:20.926Z,0
2016-12-07T01:20:30.405Z,0
2016-12-07T01:21:39.261Z,0
2016-12-07T01:22:48.750Z,0
2016-12-07T01:23:58.248Z,0
2016-12-07T01:25:08.042Z,0
2016-12-07T01:26:17.849Z,0
2016-12-07T01:27:27.363Z,0
2016-12-07T01:28:36.848Z,0
2016-12-07T01:29:46.636Z,0
2016-12-07T01:30:56.427Z,0
2016-12-07T01:32:05.597Z,0
2016-12-07T01:33:15.051Z,0
2016-12-07T01:34:24.537Z,0
2016-12-07T01:35:34.327Z,0
2016-12-07T01:36:43.806Z,0
2016-12-07T01:37:53.586Z,0
2016-12-07T01:39:03.352Z,0
2016-12-07T01:40:12.492Z,0
2016-12-07T01:41:21.673Z,0
2016-12-07T01:42:31.491Z,0
2016-12-07T01:43:41.435Z,0
2016-12-07T01:44:50.900Z,0
2016-12-07T01:46:00.744Z,0
2016-12-07T01:47:09.952Z,0
2016-12-07T01:48:19.734Z,0
2016-12-07T01:49:28.678Z,0
2016-12-07T01:50:38.145Z,0
2016-12-07T01:51:47.987Z,0
2016-12-07T01:52:57.771Z,0
2016-12-07T01:54:06.963Z,0
2016-12-07T01:55:16.426Z,0
2016-12-07T01:56:25.901Z,0
2016-12-07T01:57:35.770Z,0
2016-12-07T01:58:45.537Z,0
2016-12-07T01:59:55.080Z,0
2016-12-07T02:01:04.536Z,0
2016-12-07T02:02:14.336Z,0
2016-12-07T02:03:24.098Z,0
2016-12-07T02:04:33.984Z,0
2016-12-07T02:05:43.752Z,0
2016-12-07T02:06:52.957Z,0
2016-12-07T02:08:02.773Z,0
2016-12-07T02:09:12.672Z,0
2016-12-07T02:10:22.444Z,0
2016-12-07T02:11:32.252Z,0
2016-12-07T02:12:41.401Z,0
2016-12-07T02:13:50.547Z,0
2016-12-07T02:15:00.180Z,0
2016-12-07T02:16:09.962Z,0
2016-12-07T02:17:19.731Z,0
2016-12-07T02:18:29.230Z,0
2016-12-07T02:19:39.070Z,0
2016-12-07T02:20:48.221Z,0
2016-12-07T02:21:58.051Z,0
2016-12-07T02:23:07.845Z,0
2016-12-07T02:24:17.634Z,0
2016-12-07T02:25:27.440Z,0
2016-12-07T02:26:36.604Z,0
2016-12-07T02:27:46.084Z,0
2016-12-07T02:28:55.890Z,0
2016-12-07T02:30:05.697Z,0
2016-12-07T02:31:15.200Z,0
2016-12-07T02:32:25.022Z,0
2016-12-07T02:33:34.979Z,0
2016-12-07T02:34:44.147Z,0
2016-12-07T02:35:53.323Z,0
2016-12-07T02:37:03.427Z,0
2016-12-07T02:38:13.230Z,0
2016-12-07T02:39:22.425Z,0
2016-12-07T02:40:32.249Z,0
2016-12-07T02:41:42.047Z,0
2016-12-07T02:42:51.856Z,0
2016-12-07T02:44:01.629Z,0
2016-12-07T02:45:11.410Z,0
2016-12-07T02:46:21.173Z,0
2016-12-07T02:47:30.653Z,0
2016-12-07T02:48:39.790Z,0
2016-12-07T02:49:49.557Z,0
2016-12-07T02:50:59.340Z,0
2016-12-07T02:52:09.152Z,0
2016-12-07T02:53:18.064Z,0
2016-12-07T02:54:27.520Z,0
2016-12-07T02:55:37.380Z,0
2016-12-07T02:56:46.886Z,0
2016-12-07T02:57:56.344Z,0
2016-12-07T02:59:05.808Z,0
2016-12-07T03:00:15.574Z,0
2016-12-07T03:01:25.027Z,0
2016-12-07T03:02:34.580Z,0
2016-12-07T03:03:44.446Z,0
2016-12-07T03:04:54.248Z,0
2016-12-07T03:06:03.712Z,0
2016-12-07T03:07:13.228Z,0
2016-12-07T03:08:22.994Z,0
2016-12-07T03:09:32.837Z,0
2016-12-07T03:10:42.656Z,0
2016-12-07T03:11:52.482Z,0
2016-12-07T03:13:01.995Z,0
2016-12-07T03:14:11.457Z,0
2016-12-07T03:15:21.261Z,0
2016-12-07T03:16:30.712Z,0
2016-12-07T03:17:39.852Z,0
2016-12-07T03:18:49.380Z,0
2016-12-07T03:19:59.186Z,0
2016-12-07T03:21:08.976Z,0
2016-12-07T03:22:18.139Z,0
2016-12-07T03:23:27.602Z,0
2016-12-07T03:24:37.433Z,0
2016-12-07T03:25:47.214Z,0
2016-12-07T03:26:56.738Z,0
2016-12-07T03:28:06.538Z,0
2016-12-07T03:29:15.682Z,0
2016-12-07T03:30:25.495Z,0
2016-12-07T03:31:34.979Z,0
2016-12-07T03:32:44.508Z,0
2016-12-07T03:33:54.010Z,0
2016-12-07T03:35:03.810Z,0
2016-12-07T03:36:13.590Z,0
2016-12-07T03:37:23.351Z,0
2016-12-07T03:39:04.998Z,0
2016-12-07T03:40:14.500Z,0
2016-12-07T03:41:23.650Z,0
2016-12-07T03:42:33.505Z,0
2016-12-07T03:43:43.297Z,0
2016-12-07T03:44:53.070Z,0
2016-12-07T03:46:02.887Z,0
2016-12-07T03:47:12.708Z,0
2016-12-07T03:48:22.492Z,0
2016-12-07T03:49:32.263Z,0
2016-12-07T03:50:42.098Z,0
2016-12-07T03:51:51.877Z,0
2016-12-07T03:53:01.462Z,0
2016-12-07T03:54:10.616Z,0
2016-12-07T03:55:20.657Z,0
2016-12-07T03:56:30.440Z,0
2016-12-07T03:57:40.216Z,0
2016-12-07T03:58:50.006Z,0
2016-12-07T03:59:59.506Z,0
2016-12-07T04:01:09.299Z,0
2016-12-07T04:02:19.119Z,0
2016-12-07T04:03:28.628Z,0
2016-12-07T04:04:38.203Z,0
2016-12-07T04:05:47.398Z,0
2016-12-07T04:06:56.891Z,0
2016-12-07T04:08:06.353Z,0
2016-12-07T04:09:16.120Z,0
2016-12-07T04:10:25.599Z,0
2016-12-07T04:11:35.236Z,0
2016-12-07T04:12:44.451Z,0
2016-12-07T04:13:54.239Z,0
2016-12-07T04:15:03.703Z,0
2016-12-07T04:16:13.221Z,0
2016-12-07T04:17:22.697Z,0
2016-12-07T04:18:32.174Z,0
2016-12-07T04:19:41.332Z,0
2016-12-07T04:20:50.894Z,0
2016-12-07T04:22:00.683Z,0
2016-12-07T04:23:10.549Z,0
2016-12-07T04:24:20.048Z,0
2016-12-07T04:25:29.281Z,0
2016-12-07T04:26:39.157Z,0
2016-12-07T04:27:48.997Z,0
2016-12-07T04:28:58.837Z,0
2016-12-07T04:30:08.386Z,0
2016-12-07T04:31:18.166Z,0
2016-12-07T04:32:27.725Z,0
2016-12-07T04:33:36.874Z,0
2016-12-07T04:34:46.024Z,0
2016-12-07T04:35:55.820Z,0
2016-12-07T04:37:05.005Z,0
2016-12-07T04:38:14.553Z,0
2016-12-07T04:39:24.022Z,0
2016-12-07T04:40:33.194Z,0
2016-12-07T04:41:42.963Z,0
2016-12-07T04:42:52.735Z,0
2016-12-07T04:44:02.532Z,0
2016-12-07T04:45:12.308Z,0
2016-12-07T04:46:21.471Z,0
2016-12-07T04:47:31.035Z,0
2016-12-07T04:48:40.196Z,0
2016-12-07T04:49:49.980Z,0
2016-12-07T04:50:59.159Z,0
2016-12-07T04:52:08.637Z,0
2016-12-07T04:53:18.445Z,0
2016-12-07T04:54:28.226Z,0
2016-12-07T04:55:37.708Z,0
2016-12-07T04:56:47.575Z,0
2016-12-07T04:57:57.372Z,0
2016-12-07T04:59:07.157Z,0
2016-12-07T05:00:16.612Z,0
2016-12-07T05:01:26.387Z,0
2016-12-07T05:02:35.845Z,0
2016-12-07T05:03:45.299Z,0
2016-12-07T05:04:54.608Z,0
2016-12-07T05:06:04.384Z,0
2016-12-07T05:07:13.884Z,0
2016-12-07T05:08:23.671Z,0
2016-12-07T05:09:33.250Z,0
2016-12-07T05:10:43.098Z,0
2016-12-07T05:11:52.893Z,0
2016-12-07T05:13:02.682Z,0
2016-12-07T05:14:12.196Z,0
2016-12-07T05:15:22.122Z,0
2016-12-07T05:16:31.910Z,0
2016-12-07T05:17:41.365Z,0
2016-12-07T05:18:50.536Z,0
2016-12-07T05:20:00.402Z,0
2016-12-07T05:21:10.206Z,0
2016-12-07T05:22:19.979Z,0
2016-12-07T05:23:29.794Z,0
2016-12-07T05:24:39.558Z,0
2016-12-07T05:25:49.354Z,0
2016-12-07T05:26:58.826Z,0
2016-12-07T05:28:08.284Z,0
2016-12-07T05:29:17.634Z,0
2016-12-07T05:30:26.785Z,0
2016-12-07T05:31:36.259Z,0
2016-12-07T05:32:45.722Z,0
2016-12-07T05:33:55.183Z,0
2016-12-07T05:35:04.973Z,0
2016-12-07T05:36:14.467Z,0
2016-12-07T05:37:24.024Z,0
2016-12-07T05:38:33.811Z,0
2016-12-07T05:39:43.275Z,0
2016-12-07T05:40:53.046Z,0
2016-12-07T05:42:02.548Z,0
2016-12-07T05:43:12.325Z,0
2016-12-07T05:44:21.538Z,0
2016-12-07T05:45:30.711Z,0
2016-12-07T05:46:40.204Z,0
2016-12-07T05:47:50.017Z,0
2016-12-07T05:48:59.872Z,0
2016-12-07T05:50:09.639Z,0
2016-12-07T05:51:19.462Z,0
2016-12-07T05:52:28.945Z,0
2016-12-07T05:53:38.737Z,0
2016-12-07T05:54:48.259Z,0
2016-12-07T05:55:58.167Z,0
2016-12-07T05:57:07.931Z,0
2016-12-07T05:58:17.755Z,0
2016-12-07T05:59:27.285Z,0
2016-12-07T06:00:37.110Z,0
2016-12-07T06:01:46.889Z,0
2016-12-07T06:02:56.354Z,0
2016-12-07T06:03:40.909Z,0
2016-12-07T06:04:50.718Z,0
2016-12-07T06:06:00.508Z,0
2016-12-07T06:07:10.086Z,0
2016-12-07T06:08:19.581Z,0
2016-12-07T06:09:29.052Z,0
2016-12-07T06:10:38.225Z,0
2016-12-07T06:11:47.697Z,0
2016-12-07T06:12:56.888Z,0
2016-12-07T06:14:06.704Z,0
2016-12-07T06:15:16.167Z,0
2016-12-07T06:16:25.678Z,0
2016-12-07T06:17:35.466Z,0
2016-12-07T06:18:45.446Z,0
2016-12-07T06:19:55.230Z,0
2016-12-07T06:21:04.994Z,0
2016-12-07T06:22:14.164Z,0
2016-12-07T06:23:23.943Z,0
2016-12-07T06:24:33.725Z,0
2016-12-07T06:25:43.235Z,0
2016-12-07T06:26:52.396Z,0
2016-12-07T06:28:01.561Z,0
2016-12-07T06:29:11.027Z,0
2016-12-07T06:30:20.503Z,0
2016-12-07T06:31:29.711Z,0
2016-12-07T06:32:39.489Z,0
2016-12-07T06:33:49.248Z,0
2016-12-07T06:34:59.042Z,0
2016-12-07T06:36:08.846Z,0
2016-12-07T06:37:18.531Z,0
2016-12-07T06:38:28.300Z,0
2016-12-07T06:39:38.084Z,0
2016-12-07T06:40:47.933Z,0
2016-12-07T06:41:57.505Z,0
2016-12-07T06:43:07.270Z,0
2016-12-07T06:44:16.774Z,0
2016-12-07T06:45:26.624Z,0
2016-12-07T06:46:36.109Z,0
2016-12-07T06:47:45.376Z,0
2016-12-07T06:48:55.189Z,0
2016-12-07T06:50:05.281Z,0
2016-12-07T06:51:15.091Z,0
2016-12-07T06:52:24.380Z,0
2016-12-07T06:53:33.568Z,5
2016-12-07T06:54:43.340Z,5
2016-12-07T06:56:24.622Z,5
2016-12-07T06:57:34.462Z,5
2016-12-07T06:58:44.230Z,5
2016-12-07T06:59:54.042Z,10
2016-12-07T07:01:03.838Z,10
2016-12-07T07:02:13.318Z,10
2016-12-07T07:03:22.785Z,10
2016-12-07T07:04:32.306Z,10
2016-12-07T07:05:41.456Z,10
2016-12-07T07:06:50.626Z,10
2016-12-07T07:07:59.794Z,10
2016-12-07T07:09:09.285Z,10
2016-12-07T07:10:18.502Z,15
2016-12-07T07:11:27.976Z,15
2016-12-07T07:12:37.741Z,15
2016-12-07T07:13:47.522Z,15
2016-12-07T07:14:56.694Z,20
2016-12-07T07:16:06.490Z,20
2016-12-07T07:17:16.285Z,20
2016-12-07T07:18:26.081Z,20
2016-12-07T07:19:35.541Z,25
2016-12-07T07:20:45.075Z,25
2016-12-07T07:21:54.944Z,30
2016-12-07T07:23:04.413Z,30
2016-12-07T07:24:13.917Z,35
2016-12-07T07:25:23.067Z,35
2016-12-07T07:26:33.005Z,40
2016-12-07T07:27:42.458Z,40
2016-12-07T07:28:51.637Z,45
2016-12-07T07:30:01.121Z,45
2016-12-07T07:31:10.911Z,45
2016-12-07T07:32:20.684Z,50
2016-12-07T07:33:30.176Z,50
2016-12-07T07:34:39.947Z,55
2016-12-07T07:35:49.403Z,55
2016-12-07T07:36:59.168Z,60
2016-12-07T07:38:08.326Z,60
2016-12-07T07:39:17.778Z,65
2016-12-07T07:40:26.948Z,65
2016-12-07T07:41:36.727Z,65
2016-12-07T07:42:45.944Z,70
2016-12-07T07:43:55.755Z,70
2016-12-07T07:45:05.582Z,70
2016-12-07T07:46:15.080Z,70
2016-12-07T07:47:24.681Z,80
2016-12-07T07:48:33.862Z,75
2016-12-07T07:49:43.335Z,75
2016-12-07T07:50:52.793Z,80
2016-12-07T07:52:02.348Z,80
2016-12-07T07:53:11.423Z,85
2016-12-07T07:54:20.934Z,85
2016-12-07T07:55:30.743Z,85
2016-12-07T07:56:40.207Z,85
2016-12-07T07:57:49.996Z,85
2016-12-07T07:58:59.533Z,85
2016-12-07T08:00:08.996Z,85
2016-12-07T08:01:18.609Z,85
2016-12-07T08:02:28.401Z,80
2016-12-07T08:03:38.197Z,80
2016-12-07T08:04:47.992Z,75
2016-12-07T08:05:57.449Z,75
2016-12-07T08:07:07.133Z,75
2016-12-07T08:08:16.899Z,75
2016-12-07T08:09:26.659Z,75
2016-12-07T08:10:36.190Z,75
2016-12-07T08:11:45.967Z,75
2016-12-07T08:12:55.471Z,75
2016-12-07T08:14:05.274Z,80
2016-12-07T08:15:14.733Z,80
2016-12-07T08:16:23.704Z,85
2016-12-07T08:17:33.535Z,90
2016-12-07T08:18:42.706Z,90
2016-12-07T08:19:52.265Z,90
2016-12-07T08:21:02.061Z,95
2016-12-07T08:22:11.529Z,100
2016-12-07T08:23:21.044Z,105
2016-12-07T08:24:30.814Z,110
2016-12-07T08:25:39.962Z,115
2016-12-07T08:26:49.470Z,120
2016-12-07T08:27:59.243Z,125
2016-12-07T08:29:08.761Z,130
2016-12-07T08:30:18.321Z,140
2016-12-07T08:31:27.803Z,145
2016-12-07T08:32:37.267Z,150
2016-12-07T08:33:47.046Z,155
2016-12-07T08:34:56.505Z,155
2016-12-07T08:36:06.280Z,165
2016-12-07T08:37:15.734Z,170
2016-12-07T08:38:25.626Z,180
2016-12-07T08:39:35.437Z,190
2016-12-07T08:40:44.936Z,200
2016-12-07T08:41:54.389Z,210
2016-12-07T08:43:03.868Z,220
2016-12-07T08:44:13.076Z,225
2016-12-07T08:45:22.890Z,235
2016-12-07T08:46:32.676Z,245
2016-12-07T08:47:42.493Z,255
2016-12-07T08:48:52.029Z,260
2016-12-07T08:50:01.507Z,270
2016-12-07T08:51:11.285Z,270
2016-12-07T08:52:20.433Z,280
2016-12-07T08:53:29.902Z,285
2016-12-07T08:54:39.671Z,290
2016-12-07T08:55:49.495Z,300
2016-12-07T08:56:59.307Z,300
2016-12-07T08:58:09.084Z,300
2016-12-07T08:59:18.888Z,300
2016-12-07T09:00:28.400Z,295
2016-12-07T09:01:38.291Z,290
2016-12-07T09:02:47.817Z,285
2016-12-07T09:03:57.605Z,280
2016-12-07T09:05:07.421Z,275
2016-12-07T09:06:16.992Z,270
2016-12-07T09:07:58.301Z,270
2016-12-07T09:09:07.797Z,270
2016-12-07T09:10:17.275Z,265
2016-12-07T09:11:26.848Z,265
2016-12-07T09:12:36.624Z,265
2016-12-07T09:13:46.320Z,270
2016-12-07T09:14:55.611Z,275
2016-12-07T09:16:05.385Z,280
2016-12-07T09:17:15.231Z,285
2016-12-07T09:18:24.071Z,290
2016-12-07T09:19:33.531Z,295
2016-12-07T09:20:43.006Z,300
2016-12-07T09:21:52.776Z,300
2016-12-07T09:23:02.265Z,305
2016-12-07T09:24:11.749Z,310
2016-12-07T09:25:20.893Z,315
2016-12-07T09:26:30.354Z,315
2016-12-07T09:27:39.834Z,320
2016-12-07T09:28:49.629Z,320
2016-12-07T09:29:58.783Z,325
2016-12-07T09:31:07.992Z,325
2016-12-07T09:32:17.856Z,330
2016-12-07T09:33:27.007Z,335
2016-12-07T09:34:36.493Z,345
2016-12-07T09:35:45.642Z,355
2016-12-07T09:36:55.122Z,360
2016-12-07T09:38:04.905Z,385
2016-12-07T09:39:14.070Z,390
2016-12-07T09:40:23.519Z,405
2016-12-07T09:41:33.004Z,415
2016-12-07T09:42:42.498Z,425
2016-12-07T09:43:51.966Z,440
2016-12-07T09:45:02.048Z,460
2016-12-07T09:46:11.550Z,475
2016-12-07T09:47:21.068Z,495
2016-12-07T09:48:30.897Z,525
2016-12-07T09:49:40.684Z,540
2016-12-07T09:50:50.461Z,565
2016-12-07T09:51:59.686Z,585
2016-12-07T09:53:09.155Z,615
2016-12-07T09:54:18.686Z,635
2016-12-07T09:55:28.481Z,660
2016-12-07T09:56:38.331Z,695
2016-12-07T09:57:48.099Z,855
2016-12-07T09:58:57.566Z,1015
2016-12-07T10:00:07.022Z,955
2016-12-07T10:01:16.249Z,965
2016-12-07T10:02:25.543Z,895
2016-12-07T10:03:35.345Z,830
2016-12-07T10:04:45.272Z,835
2016-12-07T10:05:55.051Z,730
2016-12-07T10:07:04.921Z,675
2016-12-07T10:08:14.731Z,600
2016-12-07T10:09:24.540Z,595
2016-12-07T10:10:34.149Z,605
2016-12-07T10:11:43.617Z,600
2016-12-07T10:12:52.790Z,580
2016-12-07T10:14:02.244Z,625
2016-12-07T10:15:11.703Z,700
2016-12-07T10:16:21.486Z,800
2016-12-07T10:17:30.635Z,885
2016-12-07T10:18:40.396Z,975
2016-12-07T10:19:49.878Z,1005
2016-12-07T10:20:59.764Z,1030
2016-12-07T10:22:09.637Z,1120
2016-12-07T10:23:19.445Z,1230
2016-12-07T10:24:29.236Z,1235
2016-12-07T10:25:39.053Z,1125
2016-12-07T10:26:48.526Z,1055
2016-12-07T10:27:58.312Z,1050
2016-12-07T10:29:07.819Z,720
2016-12-07T10:30:17.477Z,530
2016-12-07T10:31:27.341Z,480
2016-12-07T10:32:37.129Z,475
2016-12-07T10:33:46.918Z,475
2016-12-07T10:34:56.707Z,475
2016-12-07T10:36:05.886Z,490
2016-12-07T10:37:14.752Z,500
2016-12-07T10:38:24.434Z,510
2016-12-07T10:39:33.703Z,510
2016-12-07T10:40:43.497Z,500
2016-12-07T10:41:53.287Z,495
2016-12-07T10:43:02.504Z,470
2016-12-07T10:44:12.022Z,465
2016-12-07T10:45:21.499Z,445
2016-12-07T10:46:30.964Z,430
2016-12-07T10:47:40.235Z,435
2016-12-07T10:48:49.088Z,430
2016-12-07T10:49:58.895Z,420
2016-12-07T10:51:08.721Z,410
2016-12-07T10:52:17.929Z,395
2016-12-07T10:53:27.718Z,385
2016-12-07T10:54:37.197Z,370
2016-12-07T10:55:46.982Z,355
2016-12-07T10:56:56.780Z,340
2016-12-07T10:58:06.635Z,325
2016-12-07T10:59:16.094Z,310
2016-12-07T11:00:25.292Z,295
2016-12-07T11:01:35.214Z,280
2016-12-07T11:02:44.981Z,275
2016-12-07T11:03:54.472Z,270
2016-12-07T11:05:04.249Z,265
2016-12-07T11:06:14.027Z,255
2016-12-07T11:07:23.823Z,250
2016-12-07T11:08:33.302Z,245
2016-12-07T11:09:42.486Z,240
2016-12-07T11:10:52.292Z,235
2016-12-07T11:12:02.068Z,230
2016-12-07T11:13:11.534Z,225
2016-12-07T11:14:21.047Z,230
2016-12-07T11:15:30.545Z,230
2016-12-07T11:16:40.031Z,235
2016-12-07T11:17:49.799Z,235
2016-12-07T11:18:59.581Z,240
2016-12-07T11:20:09.156Z,240
2016-12-07T11:21:18.953Z,245
2016-12-07T11:22:28.441Z,245
2016-12-07T11:23:37.953Z,245
2016-12-07T11:24:47.809Z,250
2016-12-07T11:25:57.620Z,260
2016-12-07T11:27:07.088Z,270
2016-12-07T11:28:16.867Z,270
2016-12-07T11:29:26.668Z,280
2016-12-07T11:30:36.223Z,290
2016-12-07T11:31:46.006Z,285
2016-12-07T11:32:55.849Z,285
2016-12-07T11:34:05.326Z,280
2016-12-07T11:35:15.091Z,275
2016-12-07T11:36:24.589Z,275
2016-12-07T11:37:34.155Z,275
2016-12-07T11:38:43.708Z,275
2016-12-07T11:39:53.221Z,270
2016-12-07T11:41:03.009Z,275
2016-12-07T11:42:12.863Z,285
2016-12-07T11:43:22.643Z,290
2016-12-07T11:44:32.438Z,295
2016-12-07T11:45:42.317Z,300
2016-12-07T11:46:51.821Z,300
2016-12-07T11:48:01.591Z,290
2016-12-07T11:49:11.366Z,280
2016-12-07T11:50:20.846Z,265
2016-12-07T11:51:30.739Z,260
2016-12-07T11:52:40.226Z,260
2016-12-07T11:53:50.029Z,260
2016-12-07T11:54:59.490Z,255
2016-12-07T11:56:09.285Z,250
2016-12-07T11:57:19.104Z,245
2016-12-07T11:58:28.893Z,240
2016-12-07T11:59:38.764Z,235
2016-12-07T12:00:48.237Z,235
2016-12-07T12:01:57.740Z,230
2016-12-07T12:03:07.612Z,220
2016-12-07T12:04:16.809Z,220
2016-12-07T12:05:26.270Z,220
2016-12-07T12:06:36.166Z,225
2016-12-07T12:07:45.931Z,225
2016-12-07T12:08:55.721Z,225
2016-12-07T12:10:05.183Z,230
2016-12-07T12:11:14.963Z,220
2016-12-07T12:12:24.885Z,215
2016-12-07T12:13:34.682Z,220
2016-12-07T12:14:44.257Z,225
2016-12-07T12:15:53.734Z,230
2016-12-07T12:17:03.545Z,240
2016-12-07T12:18:13.329Z,245
2016-12-07T12:19:23.149Z,250
2016-12-07T12:20:32.921Z,260
2016-12-07T12:21:42.711Z,265
2016-12-07T12:22:52.195Z,275
2016-12-07T12:24:01.994Z,285
2016-12-07T12:25:11.851Z,290
2016-12-07T12:26:21.756Z,305
2016-12-07T12:27:31.597Z,305
2016-12-07T12:28:41.085Z,305
2016-12-07T12:29:50.875Z,300
2016-12-07T12:31:00.657Z,300
2016-12-07T12:32:10.497Z,295
2016-12-07T12:33:19.984Z,295
2016-12-07T12:34:29.797Z,295
2016-12-07T12:35:39.007Z,305
2016-12-07T12:36:48.520Z,310
2016-12-07T12:37:58.330Z,325
2016-12-07T12:39:07.796Z,330
2016-12-07T12:40:17.325Z,335
2016-12-07T12:41:27.108Z,335
2016-12-07T12:42:36.985Z,340
2016-12-07T12:43:46.458Z,345
2016-12-07T12:44:55.608Z,340
2016-12-07T12:46:05.391Z,335
2016-12-07T12:47:15.281Z,330
2016-12-07T12:48:25.070Z,315
2016-12-07T12:49:34.855Z,305
2016-12-07T12:50:44.031Z,305
2016-12-07T12:51:53.527Z,300
2016-12-07T12:53:03.320Z,285
2016-12-07T12:54:13.134Z,275
2016-12-07T12:55:22.919Z,270
2016-12-07T12:56:32.416Z,265
2016-12-07T12:57:42.196Z,265
2016-12-07T12:58:52.068Z,260
2016-12-07T13:00:01.537Z,255
2016-12-07T13:01:11.351Z,255
2016-12-07T13:02:21.207Z,260
2016-12-07T13:03:30.681Z,255
2016-12-07T13:04:40.151Z,260
2016-12-07T13:05:50.028Z,270
2016-12-07T13:06:59.866Z,285
2016-12-07T13:08:09.354Z,295
2016-12-07T13:09:18.821Z,305
2016-12-07T13:10:28.658Z,305
2016-12-07T13:11:37.881Z,310
2016-12-07T13:12:47.696Z,315
2016-12-07T13:13:57.722Z,320
2016-12-07T13:15:06.577Z,320
2016-12-07T13:16:16.276Z,315
2016-12-07T13:17:26.124Z,315
2016-12-07T13:18:35.927Z,300
2016-12-07T13:19:45.461Z,295
2016-12-07T13:20:55.367Z,270
2016-12-07T13:22:04.525Z,260
2016-12-07T13:23:13.988Z,250
2016-12-07T13:24:23.965Z,240
2016-12-07T13:25:33.763Z,230
2016-12-07T13:26:43.257Z,215
2016-12-07T13:27:52.724Z,205
2016-12-07T13:29:02.578Z,195
2016-12-07T13:30:12.227Z,185
2016-12-07T13:31:21.705Z,180
2016-12-07T13:32:30.887Z,175
2016-12-07T13:33:40.671Z,165
2016-12-07T13:34:50.176Z,150
2016-12-07T13:35:59.983Z,140
2016-12-07T13:37:09.457Z,135
2016-12-07T13:38:18.637Z,135
2016-12-07T13:39:27.829Z,130
2016-12-07T13:40:37.411Z,130
2016-12-07T13:41:46.892Z,130
2016-12-07T13:42:56.467Z,125
2016-12-07T13:44:05.931Z,125
2016-12-07T13:45:15.757Z,125
2016-12-07T13:46:25.298Z,120
2016-12-07T13:47:34.473Z,115
2016-12-07T13:48:43.956Z,110
2016-12-07T13:49:53.431Z,110
2016-12-07T13:51:02.623Z,105
2016-12-07T13:52:12.412Z,100
2016-12-07T13:53:22.364Z,100
2016-12-07T13:54:32.249Z,95
2016-12-07T13:55:42.033Z,95
2016-12-07T13:56:51.200Z,95
2016-12-07T13:58:00.674Z,95
2016-12-07T13:59:10.143Z,100
2016-12-07T14:00:19.974Z,105
2016-12-07T14:01:29.533Z,105
2016-12-07T14:02:38.999Z,105
2016-12-07T14:03:48.817Z,100
2016-12-07T14:04:58.623Z,95
2016-12-07T14:06:08.466Z,90
2016-12-07T14:07:18.277Z,90
2016-12-07T14:08:27.751Z,85
2016-12-07T14:09:37.537Z,80
2016-12-07T14:10:47.024Z,80
2016-12-07T14:11:56.826Z,75
2016-12-07T14:13:06.637Z,70
2016-12-07T14:14:16.490Z,70
2016-12-07T14:15:25.981Z,70
2016-12-07T14:16:35.470Z,65
2016-12-07T14:17:44.970Z,65
2016-12-07T14:18:54.755Z,65
2016-12-07T14:20:04.548Z,60
2016-12-07T14:21:14.346Z,60
2016-12-07T14:22:24.203Z,55
2016-12-07T14:23:33.681Z,55
2016-12-07T14:24:43.173Z,55
2016-12-07T14:25:52.380Z,50
2016-12-07T14:27:01.541Z,50
2016-12-07T14:28:11.341Z,45
2016-12-07T14:29:20.823Z,45
2016-12-07T14:30:30.664Z,40
2016-12-07T14:31:40.142Z,40
2016-12-07T14:32:49.618Z,40
2016-12-07T14:33:59.391Z,35
2016-12-07T14:35:08.591Z,35
2016-12-07T14:36:18.088Z,35
2016-12-07T14:37:27.880Z,30
2016-12-07T14:38:37.665Z,30
2016-12-07T14:39:47.148Z,30
2016-12-07T14:40:56.940Z,25
2016-12-07T14:42:06.769Z,25
2016-12-07T14:43:16.256Z,25
2016-12-07T14:44:26.059Z,25
2016-12-07T14:45:35.601Z,20
2016-12-07T14:46:45.424Z,20
2016-12-07T14:47:55.279Z,15
2016-12-07T14:49:04.789Z,15
2016-12-07T14:50:14.622Z,15
2016-12-07T14:51:23.795Z,15
2016-12-07T14:52:33.612Z,10
2016-12-07T14:53:43.085Z,10
2016-12-07T14:54:52.947Z,10
2016-12-07T14:56:02.774Z,10
2016-12-07T14:57:12.552Z,5
2016-12-07T14:58:22.057Z,5
2016-12-07T14:59:31.980Z,5
2016-12-07T15:00:41.750Z,5
2016-12-07T15:01:51.566Z,5
2016-12-07T15:03:00.731Z,5
2016-12-07T15:04:10.523Z,5
2016-12-07T15:05:20.036Z,0
2016-12-07T15:06:29.513Z,0
2016-12-07T15:07:39.435Z,0
2016-12-07T15:08:48.943Z,0
2016-12-07T15:09:58.768Z,0
2016-12-07T15:11:08.644Z,0
2016-12-07T15:12:18.256Z,0
2016-12-07T15:13:27.133Z,0
2016-12-07T15:14:36.668Z,0
2016-12-07T15:15:46.503Z,0
2016-12-07T15:16:55.984Z,0
2016-12-07T15:18:05.478Z,0
2016-12-07T15:19:14.798Z,0
2016-12-07T15:20:24.607Z,0
2016-12-07T15:21:34.441Z,0
2016-12-07T15:22:43.910Z,0
2016-12-07T15:23:53.721Z,0
2016-12-07T15:25:02.911Z,0
2016-12-07T15:26:12.091Z,0
2016-12-07T15:27:21.882Z,0
2016-12-07T15:28:31.364Z,0
2016-12-07T15:29:41.153Z,0
2016-12-07T15:30:50.994Z,0
2016-12-07T15:32:00.533Z,0
2016-12-07T15:33:09.916Z,0
2016-12-07T15:34:19.710Z,0
2016-12-07T15:35:29.320Z,0
2016-12-07T15:36:38.803Z,0
2016-12-07T15:37:48.683Z,0
2016-12-07T15:38:58.526Z,0
2016-12-07T15:40:08.349Z,0
2016-12-07T15:41:18.167Z,0
2016-12-07T15:42:27.662Z,0
2016-12-07T15:43:37.175Z,0
2016-12-07T15:44:46.983Z,0
2016-12-07T15:45:56.826Z,0
2016-12-07T15:47:06.625Z,0
2016-12-07T15:48:16.442Z,0
2016-12-07T15:49:26.252Z,0
2016-12-07T15:50:36.062Z,0
2016-12-07T15:51:45.633Z,0
2016-12-07T15:52:55.114Z,0
2016-12-07T15:54:04.900Z,0
2016-12-07T15:55:14.072Z,0
2016-12-07T15:56:23.587Z,0
2016-12-07T15:57:33.072Z,0
2016-12-07T15:58:42.920Z,0
2016-12-07T15:59:52.739Z,0
2016-12-07T16:01:02.513Z,0
2016-12-07T16:02:11.976Z,0
2016-12-07T16:03:21.467Z,0
2016-12-07T16:04:30.673Z,0
2016-12-07T16:05:40.516Z,0
2016-12-07T16:06:50.355Z,0
2016-12-07T16:08:00.193Z,0
2016-12-07T16:09:09.371Z,0
2016-12-07T16:10:18.883Z,0
2016-12-07T16:11:28.689Z,0
2016-12-07T16:12:37.590Z,0
2016-12-07T16:13:47.384Z,0
2016-12-07T16:14:57.203Z,0
2016-12-07T16:16:07.289Z,0
2016-12-07T16:17:17.087Z,0
2016-12-07T16:18:26.565Z,0
2016-12-07T16:19:36.341Z,0
2016-12-07T16:20:45.812Z,0
2016-12-07T16:21:55.348Z,0
2016-12-07T16:23:04.833Z,0
2016-12-07T16:24:14.661Z,0
2016-12-07T16:25:24.127Z,0
2016-12-07T16:26:33.900Z,0
2016-12-07T16:27:43.720Z,0
2016-12-07T16:28:53.287Z,0
2016-12-07T16:30:03.135Z,0
2016-12-07T16:31:12.936Z,0
2016-12-07T16:32:22.717Z,0
2016-12-07T16:33:32.233Z,0
2016-12-07T16:34:42.155Z,0
2016-12-07T16:35:51.940Z,0
2016-12-07T16:37:01.741Z,0
2016-12-07T16:38:11.528Z,0
2016-12-07T16:39:21.007Z,0